Time;durP1;ratioP1;P1;durP2;ratioP2;P2;SDS_P1;SDS_P2;PMS_P1;PMS_P2;Temp;Humidity;BMP_temperature;BMP_pressure;BME280_temperature;BME280_humidity;BME280_pressure;Samples;Min_cycle;Max_cycle;Signal;HPM_P1;HPM_P2
2021/12/13 00:02:18;;;;;;;;;;;;;;;19.17;67.21;101104.00;5006021;28;1802;-44
2021/12/13 00:04:46;;;;;;;;;;;;;;;19.19;67.37;101116.28;5002987;28;1950;-44
2021/12/13 00:07:16;;;;;;;;;;;;;;;19.21;66.49;101108.97;4995249;28;1803;-46
2021/12/13 00:09:45;;;;;;;;;;;;;;;19.21;67.61;101118.84;5005173;28;1910;-45
2021/12/13 00:12:12;;;;;;;;;;;;;;;19.20;67.60;101125.19;5003835;28;2024;-45
2021/12/13 00:14:40;;;;;;;;;;;;;;;19.25;67.41;101106.88;5005966;28;1951;-44
2021/12/13 00:17:09;;;;;;;;;;;;;;;19.22;67.41;101121.41;5003200;28;1773;-44
2021/12/13 00:19:39;;;;;;;;;;;;;;;19.23;66.27;101104.31;5004407;28;1836;-44
2021/12/13 00:22:07;;;;;;;;;;;;;;;19.28;66.07;101101.28;5012455;28;1475;-47
2021/12/13 00:24:35;;;;;;;;;;;;;;;19.29;66.22;101127.09;5005648;28;935;-44
2021/12/13 00:27:03;;;;;;;;;;;;;;;19.32;66.81;101137.59;5003502;28;1898;-45
2021/12/13 00:29:33;;;;;;;;;;;;;;;19.35;66.93;101126.59;4994287;28;1903;-44
2021/12/13 00:32:04;;;;;;;;;;;;;;;19.36;67.03;101124.75;5005336;28;1813;-44
2021/12/13 00:34:33;;;;;;;;;;;;;;;19.36;65.67;101133.66;5003497;28;1752;-44
2021/12/13 00:37:04;;;;;;;;;;;;;;;19.36;65.51;101127.44;4997391;28;1610;-44
2021/12/13 00:39:32;;;;;;;;;;;;;;;19.36;66.66;101136.34;5003655;28;1782;-44
2021/12/13 00:41:59;;;;;;;;;;;;;;;19.34;65.78;101141.00;5003254;28;2011;-45
2021/12/13 00:44:28;;;;;;;;;;;;;;;19.31;66.64;101145.75;5004297;28;1807;-44
2021/12/13 00:46:56;;;;;;;;;;;;;;;19.27;66.81;101134.44;5000775;28;1973;-44
2021/12/13 00:49:24;;;;;;;;;;;;;;;19.25;66.11;101144.44;5001189;28;1910;-44
2021/12/13 00:51:52;;;;;;;;;;;;;;;19.26;67.11;101132.75;4997306;28;1677;-44
2021/12/13 00:54:21;;;;;;;;;;;;;;;19.22;66.86;101128.63;5003437;28;1762;-44
2021/12/13 00:56:51;;;;;;;;;;;;;;;19.21;66.45;101129.56;5002662;28;1771;-44
2021/12/13 00:59:21;;;;;;;;;;;;;;;19.22;65.85;101121.41;5001226;28;1984;-44
2021/12/13 01:01:51;;;;;;;;;;;;;;;19.21;67.16;101134.94;5001262;28;1734;-44
2021/12/13 01:04:17;;;;;;;;;;;;;;;19.20;66.40;101125.19;5003766;28;1801;-44
2021/12/13 01:07:14;;;;;;;;;;;;;;;19.17;66.41;101130.81;5013396;28;1590;-44
2021/12/13 01:09:55;;;;;;;;;;;;;;;19.21;67.09;101113.50;5005107;28;1910;-44
2021/12/13 01:12:24;;;;;;;;;;;;;;;19.20;67.11;101122.50;5004869;28;1064;-44
2021/12/13 01:14:57;;;;;;;;;;;;;;;19.17;67.11;101117.41;5002666;28;2054;-45
2021/12/13 01:17:36;;;;;;;;;;;;;;;19.12;65.95;101120.47;5002978;28;1682;-44
2021/12/13 01:20:07;;;;;;;;;;;;;;;19.14;66.04;101123.88;5003790;28;1755;-45
2021/12/13 01:22:46;;;;;;;;;;;;;;;19.12;67.05;101108.88;5010359;28;1766;-45
2021/12/13 01:25:19;;;;;;;;;;;;;;;19.10;66.05;101119.75;5007131;28;1951;-44
2021/12/13 01:27:50;;;;;;;;;;;;;;;19.06;66.13;101100.41;5002533;28;1070;-44
2021/12/13 01:30:18;;;;;;;;;;;;;;;19.12;66.09;101111.56;4997587;28;2074;-45
2021/12/13 01:32:47;;;;;;;;;;;;;;;19.12;67.08;101115.13;5001085;28;1753;-44
2021/12/13 01:35:15;;;;;;;;;;;;;;;19.12;65.94;101117.81;5000887;28;1771;-45
2021/12/13 01:37:41;;;;;;;;;;;;;;;19.14;66.95;101131.94;5001776;28;1620;-44
2021/12/13 01:40:12;;;;;;;;;;;;;;;19.13;66.59;101118.66;5002947;28;1762;-45
2021/12/13 01:42:39;;;;;;;;;;;;;;;19.17;66.06;101133.50;5002635;28;1739;-45
2021/12/13 01:45:09;;;;;;;;;;;;;;;19.18;66.34;101113.72;5002054;28;1659;-46
2021/12/13 01:47:37;;;;;;;;;;;;;;;19.21;66.51;101129.56;5003362;28;1071;-44
2021/12/13 01:50:06;;;;;;;;;;;;;;;19.22;66.05;101136.66;5004059;28;1902;-45
2021/12/13 01:52:34;;;;;;;;;;;;;;;19.19;66.37;101123.50;5010342;28;1793;-44
2021/12/13 01:55:03;;;;;;;;;;;;;;;19.22;65.85;101120.56;5006739;28;1920;-45
2021/12/13 01:57:40;;;;;;;;;;;;;;;19.18;65.61;101116.41;5005843;28;1788;-45
2021/12/13 02:00:17;;;;;;;;;;;;;;;19.17;65.61;101112.03;5005571;28;1934;-45
2021/12/13 02:02:45;;;;;;;;;;;;;;;19.15;66.80;101116.69;5011697;28;1452;-44
2021/12/13 02:05:13;;;;;;;;;;;;;;;19.11;66.85;101120.59;5006764;28;2234;-45
2021/12/13 02:07:43;;;;;;;;;;;;;;;19.11;66.76;101112.56;4999979;28;1582;-45
2021/12/13 02:10:12;;;;;;;;;;;;;;;19.12;65.71;101114.25;5007656;28;1969;-44
2021/12/13 02:12:42;;;;;;;;;;;;;;;19.11;65.82;101108.03;5005894;28;1843;-44
2021/12/13 02:17:54;;;;;;;;;;;;;;;19.18;66.11;101119.09;5009167;28;1786;-45
2021/12/13 02:20:23;;;;;;;;;;;;;;;19.16;66.72;101127.28;5007389;28;1081;-44
2021/12/13 02:22:52;;;;;;;;;;;;;;;19.15;66.25;101135.44;4999540;28;1801;-44
2021/12/13 02:25:22;;;;;;;;;;;;;;;19.17;65.80;101144.22;5005614;28;1761;-45
2021/12/13 02:27:50;;;;;;;;;;;;;;;19.18;66.42;101148.59;5007459;28;1059;-44
2021/12/13 02:30:19;;;;;;;;;;;;;;;19.18;66.58;101129.81;5010788;28;1906;-44
2021/12/13 02:32:46;;;;;;;;;;;;;;;19.14;66.59;101139.97;5005433;28;1888;-44
2021/12/13 02:35:13;;;;;;;;;;;;;;;19.12;66.75;101141.94;5003802;28;1862;-44
2021/12/13 02:37:40;;;;;;;;;;;;;;;19.15;66.63;101140.81;5007440;28;1753;-44
2021/12/13 02:40:09;;;;;;;;;;;;;;;19.14;66.77;101128.38;5005270;28;1613;-45
2021/12/13 02:42:35;;;;;;;;;;;;;;;19.13;65.93;101132.06;5004809;28;1790;-45
2021/12/13 02:45:12;;;;;;;;;;;;;;;19.12;66.57;101133.00;5006577;28;1168;-44
2021/12/13 02:47:41;;;;;;;;;;;;;;;19.10;65.54;101140.34;5010764;28;1268;-44
2021/12/13 02:50:10;;;;;;;;;;;;;;;19.15;65.80;101132.78;5008247;28;1914;-45
2021/12/13 02:52:39;;;;;;;;;;;;;;;19.08;65.83;101124.41;4998869;28;1790;-45
2021/12/13 02:55:09;;;;;;;;;;;;;;;19.09;65.58;101112.69;5000823;28;1756;-45
2021/12/13 02:57:38;;;;;;;;;;;;;;;19.06;66.04;101110.28;5004739;28;1864;-45
2021/12/13 03:02:47;;;;;;;;;;;;;;;19.18;66.56;101124.47;5018340;23;2149;-43
2021/12/13 03:05:18;;;;;;;;;;;;;;;19.20;66.06;101127.88;4993922;28;1425;-43
2021/12/13 03:07:46;;;;;;;;;;;;;;;19.22;66.35;101121.41;4991507;28;1834;-43
2021/12/13 03:10:17;;;;;;;;;;;;;;;19.20;65.52;101112.66;4979838;28;1911;-42
2021/12/13 03:12:44;;;;;;;;;;;;;;;19.27;65.44;101121.84;4994484;28;1692;-43
2021/12/13 03:15:15;;;;;;;;;;;;;;;19.22;66.20;101120.56;4994179;28;1733;-44
2021/12/13 03:17:45;;;;;;;;;;;;;;;19.23;65.70;101116.91;4988874;28;1115;-43
2021/12/13 03:20:25;;;;;;;;;;;;;;;19.21;66.22;101117.00;4985689;28;1283;-43
2021/12/13 03:23:07;;;;;;;;;;;;;;;19.19;66.28;101126.19;4994356;28;1763;-43
2021/12/13 03:25:43;;;;;;;;;;;;;;;19.17;66.23;101133.50;4985091;28;1932;-44
2021/12/13 03:28:44;;;;;;;;;;;;;;;19.17;65.60;101131.66;4975019;28;1007;-43
2021/12/13 03:31:13;;;;;;;;;;;;;;;19.11;66.37;101144.72;4993830;28;2054;-43
2021/12/13 03:33:42;;;;;;;;;;;;;;;19.14;65.66;101136.41;4991060;28;2013;-44
2021/12/13 03:36:14;;;;;;;;;;;;;;;19.14;65.54;101139.97;4991075;28;1820;-43
2021/12/13 03:38:42;;;;;;;;;;;;;;;19.17;65.73;101137.03;4986537;28;1740;-42
2021/12/13 03:41:10;;;;;;;;;;;;;;;19.18;65.82;101151.25;4993624;28;2003;-43
2021/12/13 03:43:43;;;;;;;;;;;;;;;19.19;66.16;101155.66;4993757;28;1777;-43
2021/12/13 03:46:12;;;;;;;;;;;;;;;19.19;65.18;101158.34;4990325;28;1583;-43
2021/12/13 03:48:43;;;;;;;;;;;;;;;19.23;65.96;101154.44;4981024;28;1733;-43
2021/12/13 03:51:14;;;;;;;;;;;;;;;19.19;65.97;101164.56;4985277;28;1970;-43
2021/12/13 03:53:44;;;;;;;;;;;;;;;19.21;65.62;101161.75;4994334;28;2009;-43
2021/12/13 03:56:18;;;;;;;;;;;;;;;19.20;65.33;101160.03;4993276;28;1950;-43
2021/12/13 03:58:54;;;;;;;;;;;;;;;19.22;65.54;101163.47;4987561;28;1477;-43
2021/12/13 04:01:23;;;;;;;;;;;;;;;19.33;64.97;101174.13;4983647;28;1716;-43
2021/12/13 04:03:57;;;;;;;;;;;;;;;19.26;64.71;101172.97;4988469;28;1757;-43
2021/12/13 04:06:24;;;;;;;;;;;;;;;19.15;65.79;101173.81;4990779;28;1179;-43
2021/12/13 04:08:55;;;;;;;;;;;;;;;19.10;65.58;101175.19;4984774;28;2044;-43
2021/12/13 04:11:34;;;;;;;;;;;;;;;19.11;65.42;101172.38;4987176;28;1903;-43
2021/12/13 04:14:09;;;;;;;;;;;;;;;19.03;66.29;101167.66;4986352;28;1777;-43
2021/12/13 04:16:48;;;;;;;;;;;;;;;19.04;66.23;101171.19;4987205;28;1906;-43
2021/12/13 04:19:20;;;;;;;;;;;;;;;19.03;65.51;101174.84;4988558;28;1877;-43
2021/12/13 04:21:50;;;;;;;;;;;;;;;19.16;65.39;101172.00;4982778;28;1181;-43
2021/12/13 04:24:23;;;;;;;;;;;;;;;19.14;65.34;101171.25;4988641;28;1543;-43
2021/12/13 04:27:00;;;;;;;;;;;;;;;19.15;65.25;101186.38;4986336;28;1573;-43
2021/12/13 04:29:30;;;;;;;;;;;;;;;19.20;65.16;101192.19;4983916;28;1910;-43
2021/12/13 04:32:21;;;;;;;;;;;;;;;19.36;64.55;101181.06;4991810;28;1623;-43
2021/12/13 04:34:51;;;;;;;;;;;;;;;19.36;65.04;101189.97;4956811;28;10925;-43
2021/12/13 04:37:19;;;;;;;;;;;;;;;19.24;65.67;101186.47;4989630;28;1808;-43
2021/12/13 04:39:54;;;;;;;;;;;;;;;19.17;65.77;101187.13;4987872;28;1559;-45
2021/12/13 04:42:26;;;;;;;;;;;;;;;19.22;65.94;101184.91;4984775;28;1148;-44
2021/12/13 04:44:57;;;;;;;;;;;;;;;19.25;64.70;101182.81;4984883;28;2331;-43
2021/12/13 04:47:41;;;;;;;;;;;;;;;19.36;64.20;101197.16;4976567;28;1965;-44
2021/12/13 04:50:11;;;;;;;;;;;;;;;19.22;65.54;101206.38;4983125;28;1902;-43
2021/12/13 04:52:38;;;;;;;;;;;;;;;19.18;65.98;101186.13;4975998;28;1963;-42
2021/12/13 04:55:06;;;;;;;;;;;;;;;19.18;64.90;101204.88;4987034;28;1743;-43
2021/12/13 04:57:34;;;;;;;;;;;;;;;19.18;64.88;101199.53;4983295;28;1797;-43
2021/12/13 05:00:04;;;;;;;;;;;;;;;19.16;65.69;101201.47;4984355;28;1158;-44
2021/12/13 05:02:30;;;;;;;;;;;;;;;19.16;65.80;101207.72;4984853;28;1788;-43
2021/12/13 05:04:59;;;;;;;;;;;;;;;19.12;65.40;101208.94;4984654;28;1913;-43
2021/12/13 05:07:26;;;;;;;;;;;;;;;19.12;64.90;101202.72;4974347;28;1834;-42
2021/12/13 05:09:53;;;;;;;;;;;;;;;19.13;65.36;101191.03;4986943;28;1906;-43
2021/12/13 05:12:22;;;;;;;;;;;;;;;19.09;64.94;101187.75;4984478;28;1020;-43
2021/12/13 05:14:51;;;;;;;;;;;;;;;19.08;65.76;101204.81;4984482;28;1874;-43
2021/12/13 05:17:19;;;;;;;;;;;;;;;19.07;64.66;101195.91;4984893;28;1774;-43
2021/12/13 05:19:47;;;;;;;;;;;;;;;19.04;65.89;101208.72;4983275;28;1919;-43
2021/12/13 05:22:15;;;;;;;;;;;;;;;19.03;65.02;101201.66;4973682;28;1786;-44
2021/12/13 05:24:44;;;;;;;;;;;;;;;19.06;65.10;101212.13;4987578;28;1564;-43
2021/12/13 05:27:11;;;;;;;;;;;;;;;19.01;65.30;101199.09;4984767;28;1768;-43
2021/12/13 05:29:40;;;;;;;;;;;;;;;19.03;65.82;101207.84;4980297;28;2000;-43
2021/12/13 05:32:10;;;;;;;;;;;;;;;19.05;65.23;101205.91;4988617;28;1841;-42
2021/12/13 05:34:38;;;;;;;;;;;;;;;19.03;65.61;101209.69;4986937;28;1749;-43
2021/12/13 05:37:07;;;;;;;;;;;;;;;19.04;65.59;101208.72;4985429;28;1084;-43
2021/12/13 05:39:34;;;;;;;;;;;;;;;19.10;65.67;101223.44;4988654;28;2091;-43
2021/12/13 05:42:02;;;;;;;;;;;;;;;19.06;65.49;101218.34;4988438;28;1820;-43
2021/12/13 05:44:32;;;;;;;;;;;;;;;19.04;64.72;101209.56;4986790;28;1977;-43
2021/12/13 05:46:59;;;;;;;;;;;;;;;19.05;65.27;101218.44;4990581;28;1765;-44
2021/12/13 05:49:30;;;;;;;;;;;;;;;19.02;65.19;101202.59;4989573;28;1935;-43
2021/12/13 05:52:02;;;;;;;;;;;;;;;18.96;64.56;101212.03;4993245;28;1907;-43
2021/12/13 05:54:31;;;;;;;;;;;;;;;18.95;65.88;101226.38;4989846;28;1882;-43
2021/12/13 05:56:59;;;;;;;;;;;;;;;18.99;65.27;101233.19;4992717;28;1685;-43
2021/12/13 05:59:28;;;;;;;;;;;;;;;18.94;65.39;101215.78;4987074;28;1953;-44
2021/12/13 06:01:58;;;;;;;;;;;;;;;18.95;65.72;101199.59;4988101;28;1875;-43
2021/12/13 06:04:31;;;;;;;;;;;;;;;18.95;65.77;101225.53;4990062;28;1741;-43
2021/12/13 06:06:59;;;;;;;;;;;;;;;18.97;65.05;101229.78;4989630;28;1584;-44
2021/12/13 06:09:43;;;;;;;;;;;;;;;18.99;64.59;101230.53;4988534;28;1975;-43
2021/12/13 06:12:11;;;;;;;;;;;;;;;18.99;64.52;101230.53;4987702;28;1735;-43
2021/12/13 06:14:38;;;;;;;;;;;;;;;18.98;65.25;101233.31;4988088;28;1932;-43
2021/12/13 06:17:06;;;;;;;;;;;;;;;19.02;64.82;101235.66;4986471;28;1846;-43
2021/12/13 06:19:34;;;;;;;;;;;;;;;19.04;65.17;101230.16;4988964;28;1770;-43
2021/12/13 06:22:08;;;;;;;;;;;;;;;18.97;65.51;101237.84;4978084;28;1102;-43
2021/12/13 06:24:35;;;;;;;;;;;;;;;18.99;65.42;101237.72;4988060;28;1044;-43
2021/12/13 06:27:05;;;;;;;;;;;;;;;18.96;65.45;101238.81;4986983;28;1887;-43
2021/12/13 06:29:46;;;;;;;;;;;;;;;18.99;64.83;101238.56;4984619;28;1795;-43
2021/12/13 06:32:21;;;;;;;;;;;;;;;18.95;65.08;101233.59;4987104;28;1753;-43
2021/12/13 06:34:47;;;;;;;;;;;;;;;18.94;64.96;101234.53;4992914;28;1768;-44
2021/12/13 06:37:15;;;;;;;;;;;;;;;18.84;65.44;101221.91;4984608;28;1873;-44
2021/12/13 06:39:41;;;;;;;;;;;;;;;18.91;65.00;101238.34;4985688;28;1064;-43
2021/12/13 06:42:08;;;;;;;;;;;;;;;18.93;64.43;101249.78;4987221;28;1837;-43
2021/12/13 06:44:36;;;;;;;;;;;;;;;18.97;64.39;101261.13;4986984;28;1680;-43
2021/12/13 06:47:06;;;;;;;;;;;;;;;18.95;64.62;101250.50;4985282;28;1732;-42
2021/12/13 06:49:35;;;;;;;;;;;;;;;18.98;64.78;101254.75;4984607;28;1670;-44
2021/12/13 06:52:03;;;;;;;;;;;;;;;19.03;64.91;101256.09;4994530;28;1914;-42
2021/12/13 06:54:36;;;;;;;;;;;;;;;19.04;64.03;101268.53;4990964;28;1782;-43
2021/12/13 06:57:05;;;;;;;;;;;;;;;19.04;64.01;101268.53;4986593;28;1873;-44
2021/12/13 06:59:34;;;;;;;;;;;;;;;19.12;63.89;101283.13;4986577;28;1773;-43
2021/12/13 07:02:03;;;;;;;;;;;;;;;19.05;64.75;101282.78;4984754;28;1884;-43
2021/12/13 07:04:38;;;;;;;;;;;;;;;19.03;65.08;101265.97;4984999;28;1818;-43
2021/12/13 07:07:08;;;;;;;;;;;;;;;19.01;63.95;101265.25;4986067;28;1700;-43
2021/12/13 07:09:37;;;;;;;;;;;;;;;18.96;64.25;101279.03;4984665;28;1744;-42
2021/12/13 07:12:11;;;;;;;;;;;;;;;18.94;64.10;101289.03;4984418;28;1906;-43
2021/12/13 07:14:39;;;;;;;;;;;;;;;18.91;64.29;101289.25;4985242;28;1772;-43
2021/12/13 07:17:12;;;;;;;;;;;;;;;18.92;64.57;101312.41;4984842;28;1738;-44
2021/12/13 07:19:40;;;;;;;;;;;;;;;18.93;65.11;101307.91;4981735;28;1598;-43
2021/12/13 07:22:07;;;;;;;;;;;;;;;18.93;64.43;101308.75;4982925;28;1824;-44
2021/12/13 07:24:40;;;;;;;;;;;;;;;18.95;64.49;101316.66;4986877;28;990;-43
2021/12/13 07:27:08;;;;;;;;;;;;;;;19.00;64.82;101312.66;4986477;28;1848;-43
2021/12/13 07:29:43;;;;;;;;;;;;;;;19.01;65.15;101308.13;4977636;28;1567;-43
2021/12/13 07:32:13;;;;;;;;;;;;;;;19.05;64.60;101313.13;4986103;28;1981;-44
2021/12/13 07:34:52;;;;;;;;;;;;;;;19.07;64.67;101308.47;4988296;28;2073;-43
2021/12/13 07:37:18;;;;;;;;;;;;;;;19.07;64.30;101315.69;4990215;28;2072;-43
2021/12/13 07:39:46;;;;;;;;;;;;;;;19.06;64.46;101319.34;4984361;28;1569;-43
2021/12/13 07:42:14;;;;;;;;;;;;;;;19.08;65.11;101314.72;4987370;28;2074;-43
2021/12/13 07:44:42;;;;;;;;;;;;;;;19.02;64.67;101318.75;4987156;28;1787;-43
2021/12/13 07:47:10;;;;;;;;;;;;;;;19.03;65.72;101315.06;4987493;28;1796;-43
2021/12/13 07:49:40;;;;;;;;;;;;;;;19.10;65.86;101326.16;4987264;28;1993;-44
2021/12/13 07:52:07;;;;;;;;;;;;;;;19.33;64.22;101321.63;4989290;28;1910;-44
2021/12/13 07:54:38;;;;;;;;;;;;;;;19.39;65.38;101317.59;4986895;28;2025;-43
2021/12/13 07:57:16;;;;;;;;;;;;;;;19.32;64.96;101321.75;4986401;28;2154;-43
2021/12/13 07:59:43;;;;;;;;;;;;;;;19.21;65.85;101325.31;4985149;28;1996;-44
2021/12/13 08:02:10;;;;;;;;;;;;;;;19.27;64.79;101343.56;4984846;28;1851;-43
2021/12/13 08:04:45;;;;;;;;;;;;;;;19.38;65.14;101330.16;4979342;28;1897;-43
2021/12/13 08:07:14;;;;;;;;;;;;;;;19.26;63.89;101347.25;4993058;28;1973;-44
2021/12/13 08:09:42;;;;;;;;;;;;;;;19.28;61.63;101347.97;4990141;28;1602;-43
2021/12/13 08:12:16;;;;;;;;;;;;;;;19.10;63.45;101344.94;4987369;28;1989;-43
2021/12/13 08:14:44;;;;;;;;;;;;;;;19.00;64.51;101336.78;4987112;28;1712;-42
2021/12/13 08:17:15;;;;;;;;;;;;;;;19.24;63.65;101338.47;4988109;28;1832;-44
2021/12/13 08:19:42;;;;;;;;;;;;;;;19.21;63.69;101339.56;4989635;28;1865;-44
2021/12/13 08:22:12;;;;;;;;;;;;;;;19.26;63.55;101350.78;4989884;28;1875;-43
2021/12/13 08:24:41;;;;;;;;;;;;;;;19.25;63.66;101350.88;4989521;28;1446;-42
2021/12/13 08:27:10;;;;;;;;;;;;;;;19.39;64.46;101358.66;4990945;28;1989;-44
2021/12/13 08:29:39;;;;;;;;;;;;;;;19.31;63.36;101355.75;4980091;28;1855;-43
2021/12/13 08:32:08;;;;;;;;;;;;;;;19.36;63.14;101353.56;4988353;28;1977;-43
2021/12/13 08:34:36;;;;;;;;;;;;;;;19.25;64.26;101361.63;4984679;28;1787;-43
2021/12/13 08:37:10;;;;;;;;;;;;;;;19.20;64.84;101371.84;4990127;28;1253;-43
2021/12/13 08:39:38;;;;;;;;;;;;;;;19.17;64.39;101372.09;4986806;28;1048;-43
2021/12/13 08:42:09;;;;;;;;;;;;;;;19.16;64.50;101379.31;4986594;28;1843;-43
2021/12/13 08:44:37;;;;;;;;;;;;;;;19.20;64.99;101363.78;4986421;28;2380;-43
2021/12/13 08:47:07;;;;;;;;;;;;;;;19.25;64.50;101372.34;4988514;28;1674;-42
2021/12/13 08:49:37;;;;;;;;;;;;;;;19.16;65.89;101365.03;4987848;28;1667;-42
2021/12/13 08:52:18;;;;;;;;;;;;;;;19.16;65.68;101373.06;4984883;28;1972;-45
2021/12/13 08:54:48;;;;;;;;;;;;;;;19.30;64.23;101375.53;4981071;28;1457;-43
2021/12/13 08:57:29;;;;;;;;;;;;;;;19.29;64.11;101371.13;4989162;28;1373;-43
2021/12/13 08:59:55;;;;;;;;;;;;;;;19.18;65.55;101374.66;4990642;28;1706;-43
2021/12/13 09:02:27;;;;;;;;;;;;;;;19.17;65.75;101366.75;4982706;28;1860;-43
2021/12/13 09:04:56;;;;;;;;;;;;;;;19.17;65.55;101364.06;4988535;28;1887;-43
2021/12/13 09:07:23;;;;;;;;;;;;;;;19.19;65.16;101357.59;4987565;28;1722;-43
2021/12/13 09:09:50;;;;;;;;;;;;;;;19.23;64.48;101358.19;4988939;28;1804;-44
2021/12/13 09:12:28;;;;;;;;;;;;;;;19.21;65.21;101346.75;4990157;28;1903;-43
2021/12/13 09:14:56;;;;;;;;;;;;;;;19.25;64.30;101350.88;4993404;28;1197;-43
2021/12/13 09:17:26;;;;;;;;;;;;;;;19.25;65.33;101350.88;4991053;28;1866;-43
2021/12/13 09:19:55;;;;;;;;;;;;;;;19.31;65.45;101358.44;4989979;28;2048;-43
2021/12/13 09:22:23;;;;;;;;;;;;;;;19.43;65.02;101352.06;4979671;28;1857;-43
2021/12/13 09:24:52;;;;;;;;;;;;;;;19.64;63.90;101337.91;4986591;28;1816;-44
2021/12/13 09:27:22;;;;;;;;;;;;;;;19.54;63.64;101339.66;4990386;28;1028;-43
2021/12/13 09:29:51;;;;;;;;;;;;;;;19.35;64.38;101335.75;4981798;28;2024;-43
2021/12/13 09:32:18;;;;;;;;;;;;;;;19.22;65.06;101340.44;4992127;28;1910;-43
2021/12/13 09:34:47;;;;;;;;;;;;;;;19.18;65.98;101344.28;4991481;28;1820;-43
2021/12/13 09:37:14;;;;;;;;;;;;;;;19.18;64.96;101333.56;4993451;28;1883;-45
2021/12/13 09:39:41;;;;;;;;;;;;;;;19.18;65.98;101355.03;4993194;28;1103;-43
2021/12/13 09:42:09;;;;;;;;;;;;;;;19.22;65.82;101356.50;4990419;28;1893;-43
2021/12/13 09:44:40;;;;;;;;;;;;;;;19.18;65.07;101344.28;4989808;28;1684;-43
2021/12/13 09:47:08;;;;;;;;;;;;;;;19.33;64.35;101359.16;4988532;28;1889;-43
2021/12/13 09:49:37;;;;;;;;;;;;;;;19.50;64.65;101349.78;4989339;28;1638;-43
2021/12/13 09:52:10;;;;;;;;;;;;;;;19.43;64.13;101360.13;4980071;28;1985;-43
2021/12/13 09:54:38;;;;;;;;;;;;;;;19.39;63.81;101356.00;4989116;28;1092;-43
2021/12/13 09:57:08;;;;;;;;;;;;;;;19.46;62.37;101342.97;4992263;28;1967;-44
2021/12/13 09:59:37;;;;;;;;;;;;;;;19.37;63.12;101344.53;4992694;28;1721;-43
2021/12/13 10:02:05;;;;;;;;;;;;;;;19.47;63.13;101333.91;4988198;28;1718;-45
2021/12/13 10:04:33;;;;;;;;;;;;;;;19.47;63.74;101344.66;4991775;28;1833;-43
2021/12/13 10:07:01;;;;;;;;;;;;;;;19.41;63.18;101329.91;4979915;28;1076;-43
2021/12/13 10:09:31;;;;;;;;;;;;;;;19.37;62.75;101336.50;4988923;28;1811;-43
2021/12/13 10:12:01;;;;;;;;;;;;;;;19.37;62.14;101335.63;4993084;28;1978;-43
2021/12/13 10:14:29;;;;;;;;;;;;;;;19.28;62.19;101337.25;4991470;28;1934;-43
2021/12/13 10:16:56;;;;;;;;;;;;;;;19.40;62.57;101316.63;4990147;28;1753;-43
2021/12/13 10:19:26;;;;;;;;;;;;;;;19.45;61.60;101328.66;4988800;28;1762;-44
2021/12/13 10:21:52;;;;;;;;;;;;;;;19.39;62.44;101326.50;4996634;28;1150;-43
2021/12/13 10:24:21;;;;;;;;;;;;;;;19.54;62.52;101324.41;4990949;28;1828;-43
2021/12/13 10:26:51;;;;;;;;;;;;;;;19.52;63.63;101321.00;4994478;28;1885;-43
2021/12/13 10:29:19;;;;;;;;;;;;;;;19.62;62.93;101310.38;4995282;28;1851;-43
2021/12/13 10:31:47;;;;;;;;;;;;;;;19.69;63.19;101308.84;4986110;28;1962;-43
2021/12/13 10:34:15;;;;;;;;;;;;;;;19.78;62.05;101309.97;4982790;28;1808;-44
2021/12/13 10:36:43;;;;;;;;;;;;;;;19.67;62.56;101311.66;4991843;28;1422;-43
2021/12/13 10:39:12;;;;;;;;;;;;;;;19.73;63.02;101315.72;4988411;28;1765;-43
2021/12/13 10:41:40;;;;;;;;;;;;;;;19.90;63.52;101310.78;4985287;28;1825;-43
2021/12/13 10:44:09;;;;;;;;;;;;;;;19.90;62.58;101303.59;4985321;28;1643;-43
2021/12/13 10:46:37;;;;;;;;;;;;;;;19.82;63.00;101309.59;4983098;28;1962;-43
2021/12/13 10:49:05;;;;;;;;;;;;;;;19.65;63.43;101319.00;4988573;28;1806;-43
2021/12/13 10:51:33;;;;;;;;;;;;;;;19.71;63.90;101312.31;4983228;28;1906;-43
2021/12/13 10:54:05;;;;;;;;;;;;;;;19.60;64.77;101313.16;4986705;28;2136;-43
2021/12/13 10:56:33;;;;;;;;;;;;;;;19.67;63.60;101313.50;4986363;28;1740;-43
2021/12/13 10:59:01;;;;;;;;;;;;;;;19.62;63.64;101305.84;4986496;28;2032;-43
2021/12/13 11:01:32;;;;;;;;;;;;;;;19.64;64.13;101319.13;4986168;28;1779;-43
2021/12/13 11:04:00;;;;;;;;;;;;;;;19.81;63.76;101310.56;4986360;28;1739;-43
2021/12/13 11:06:27;;;;;;;;;;;;;;;19.76;63.77;101310.09;4983302;28;1143;-43
2021/12/13 11:08:53;;;;;;;;;;;;;;;19.58;64.96;101303.53;4984854;28;1875;-43
2021/12/13 11:11:22;;;;;;;;;;;;;;;19.61;64.84;101309.47;4990141;28;2018;-43
2021/12/13 11:13:50;;;;;;;;;;;;;;;19.43;64.72;101295.75;4992951;28;1603;-43
2021/12/13 11:16:19;;;;;;;;;;;;;;;19.65;64.58;101302.88;4989500;28;1850;-43
2021/12/13 11:18:47;;;;;;;;;;;;;;;19.47;65.21;101296.38;4983919;28;1789;-43
2021/12/13 11:21:15;;;;;;;;;;;;;;;19.45;64.94;101309.91;4995407;28;1279;-43
2021/12/13 11:23:42;;;;;;;;;;;;;;;19.55;65.42;101298.41;4990463;28;1776;-43
2021/12/13 11:26:11;;;;;;;;;;;;;;;19.43;65.30;101305.63;4984728;28;1936;-43
2021/12/13 11:28:38;;;;;;;;;;;;;;;19.38;64.61;101295.28;4981809;28;1071;-42
2021/12/13 11:31:09;;;;;;;;;;;;;;;19.34;65.72;101296.53;4988195;28;1799;-43
2021/12/13 11:34:00;;;;;;;;;;;;;;;19.41;65.40;101303.06;4983385;28;1910;-44
2021/12/13 11:36:42;;;;;;;;;;;;;;;19.37;65.88;101311.50;4992591;28;1825;-43
2021/12/13 11:39:32;;;;;;;;;;;;;;;19.42;65.11;101309.31;4990077;28;1911;-43
2021/12/13 11:42:13;;;;;;;;;;;;;;;19.43;65.26;101293.06;4977262;28;1860;-43
2021/12/13 11:44:52;;;;;;;;;;;;;;;19.45;65.51;101307.22;4989392;28;1769;-43
2021/12/13 11:47:37;;;;;;;;;;;;;;;19.59;65.06;101311.44;4987332;28;1954;-43
2021/12/13 11:50:18;;;;;;;;;;;;;;;19.60;64.88;101306.97;4988859;28;1899;-43
2021/12/13 11:52:52;;;;;;;;;;;;;;;19.56;64.91;101311.72;4960670;28;2001;-44
2021/12/13 11:55:35;;;;;;;;;;;;;;;19.44;64.37;101291.25;4987529;28;1682;-45
2021/12/13 11:58:10;;;;;;;;;;;;;;;19.53;63.96;101281.59;4987019;28;1811;-43
2021/12/13 12:01:01;;;;;;;;;;;;;;;19.50;65.30;101295.25;4987019;28;1628;-42
2021/12/13 12:03:42;;;;;;;;;;;;;;;19.34;64.95;101291.16;4986708;28;1740;-43
2021/12/13 12:06:32;;;;;;;;;;;;;;;19.57;64.87;101296.47;4962831;28;1272;-43
2021/12/13 12:09:14;;;;;;;;;;;;;;;19.46;65.12;101289.31;4985157;28;1985;-43
2021/12/13 12:11:59;;;;;;;;;;;;;;;19.34;64.88;101287.59;4984099;28;3551;-43
2021/12/13 12:14:28;;;;;;;;;;;;;;;19.25;65.62;101289.22;4987227;28;1781;-43
2021/12/13 12:16:56;;;;;;;;;;;;;;;19.25;65.79;101295.41;4984586;28;1822;-43
2021/12/13 12:19:24;;;;;;;;;;;;;;;19.27;65.08;101284.59;4988675;28;2235;-43
2021/12/13 12:21:55;;;;;;;;;;;;;;;19.29;65.85;101293.34;4979300;28;1041;-43
2021/12/13 12:24:23;;;;;;;;;;;;;;;19.21;65.27;101291.28;4987201;28;1936;-43
2021/12/13 12:26:51;;;;;;;;;;;;;;;19.29;65.30;101298.72;4986500;28;1845;-43
2021/12/13 12:29:20;;;;;;;;;;;;;;;19.30;64.96;101300.44;4983473;28;1740;-43
2021/12/13 12:31:49;;;;;;;;;;;;;;;19.33;64.52;101286.75;4989191;28;1914;-43
2021/12/13 12:34:15;;;;;;;;;;;;;;;19.35;65.78;101300.91;4993266;28;1733;-45
2021/12/13 12:36:47;;;;;;;;;;;;;;;19.34;66.24;101307.25;4986218;28;1059;-43
2021/12/13 12:39:31;;;;;;;;;;;;;;;19.34;64.89;101295.66;4982107;28;1887;-43
2021/12/13 12:42:03;;;;;;;;;;;;;;;19.30;66.23;101307.59;4981917;28;2149;-44
2021/12/13 12:44:33;;;;;;;;;;;;;;;19.28;66.22;101308.59;4985868;28;1901;-43
2021/12/13 12:47:01;;;;;;;;;;;;;;;19.27;65.39;101306.88;4992639;28;1620;-43
2021/12/13 12:49:27;;;;;;;;;;;;;;;19.23;66.25;101317.97;4987724;28;1641;-43
2021/12/13 12:52:01;;;;;;;;;;;;;;;19.22;65.94;101314.47;4978303;28;1911;-43
2021/12/13 12:54:28;;;;;;;;;;;;;;;19.10;66.00;101312.78;4986865;28;1926;-43
2021/12/13 12:56:56;;;;;;;;;;;;;;;19.13;66.16;101307.16;4981829;28;1860;-43
2021/12/13 12:59:23;;;;;;;;;;;;;;;19.14;66.24;101316.03;4987388;28;1755;-43
2021/12/13 13:01:55;;;;;;;;;;;;;;;19.23;64.83;101315.31;4983421;28;2348;-43
2021/12/13 13:04:23;;;;;;;;;;;;;;;19.19;65.95;101330.78;4984420;28;1832;-43
2021/12/13 13:06:53;;;;;;;;;;;;;;;19.26;65.31;101331.16;4989471;28;1679;-43
2021/12/13 13:09:19;;;;;;;;;;;;;;;19.24;65.42;101336.63;4984352;28;1986;-43
2021/12/13 13:11:47;;;;;;;;;;;;;;;19.27;65.67;101330.16;4988738;28;1843;-43